Time;durP1;ratioP1;P1;durP2;ratioP2;P2;SDS_P1;SDS_P2;PMS_P1;PMS_P2;Temp;Humidity;BMP_temperature;BMP_pressure;BME280_temperature;BME280_humidity;BME280_pressure;Samples;Min_cycle;Max_cycle;Signal;HPM_P1;HPM_P2
2021/09/01 00:00:52;;;;;;;17.20;15.70;;;11.40;99.90;;;;;;4994202;28;20659;-88
2021/09/01 00:03:18;;;;;;;17.10;15.40;;;11.40;99.90;;;;;;4997768;28;20626;-89
2021/09/01 00:05:45;;;;;;;19.53;17.60;;;11.40;99.90;;;;;;4989535;28;20627;-88
2021/09/01 00:08:13;;;;;;;18.20;16.50;;;11.40;99.90;;;;;;4995312;28;20679;-88
2021/09/01 00:10:40;;;;;;;16.53;15.17;;;11.40;99.90;;;;;;4989760;28;20724;-88
2021/09/01 00:13:07;;;;;;;20.47;18.60;;;11.30;99.90;;;;;;4988858;28;20629;-88
2021/09/01 00:15:34;;;;;;;20.03;18.27;;;11.30;99.90;;;;;;4989374;28;20964;-89
2021/09/01 00:18:01;;;;;;;17.43;15.93;;;11.30;99.90;;;;;;4994154;28;20611;-89
2021/09/01 00:20:28;;;;;;;19.10;17.43;;;11.30;99.90;;;;;;4981124;28;20663;-89
2021/09/01 00:22:55;;;;;;;20.07;18.27;;;11.30;99.90;;;;;;4993650;28;20613;-89
2021/09/01 00:25:24;;;;;;;20.87;18.93;;;11.40;99.90;;;;;;4987268;28;20620;-88
2021/09/01 00:27:50;;;;;;;21.00;19.17;;;11.40;99.90;;;;;;4988545;28;21216;-88
2021/09/01 00:30:17;;;;;;;20.83;19.07;;;11.40;99.90;;;;;;4993363;28;20659;-88
2021/09/01 00:32:44;;;;;;;21.23;18.57;;;11.40;99.90;;;;;;4988573;28;20633;-89
2021/09/01 00:35:11;;;;;;;19.73;18.03;;;11.40;99.90;;;;;;4993325;28;20663;-89
2021/09/01 00:37:38;;;;;;;20.13;18.30;;;11.30;99.90;;;;;;4985636;28;20617;-89
2021/09/01 00:40:06;;;;;;;20.23;18.23;;;11.40;99.90;;;;;;4987565;28;20641;-88
2021/09/01 00:42:36;;;;;;;20.10;18.27;;;11.30;99.90;;;;;;4992336;28;21047;-88
2021/09/01 00:45:04;;;;;;;21.63;19.37;;;11.40;99.90;;;;;;4990153;28;20975;-89
2021/09/01 00:47:30;;;;;;;20.67;18.77;;;11.30;99.90;;;;;;4983837;28;21284;-88
2021/09/01 00:49:57;;;;;;;20.90;18.90;;;11.20;99.90;;;;;;4988872;28;20667;-89
2021/09/01 00:52:24;;;;;;;20.03;18.33;;;11.30;99.90;;;;;;4989940;28;21014;-89
2021/09/01 00:54:52;;;;;;;20.93;18.93;;;11.30;99.90;;;;;;4988789;28;20658;-88
2021/09/01 00:57:21;;;;;;;23.23;20.90;;;11.40;99.90;;;;;;4998494;28;20677;-89
2021/09/01 00:59:49;;;;;;;27.20;24.37;;;11.40;99.90;;;;;;4997601;28;20652;-89
2021/09/01 01:02:16;;;;;;;23.63;21.37;;;11.50;99.90;;;;;;4998651;28;20639;-89
2021/09/01 01:04:44;;;;;;;19.97;17.97;;;11.50;99.90;;;;;;4995734;28;20651;-89
2021/09/01 01:07:12;;;;;;;21.33;19.20;;;11.60;99.90;;;;;;4991190;28;21239;-89
2021/09/01 01:09:40;;;;;;;22.03;19.70;;;11.60;99.90;;;;;;4989902;28;20664;-89
2021/09/01 01:12:10;;;;;;;22.30;20.20;;;11.70;99.90;;;;;;4989690;28;20632;-89
2021/09/01 01:14:38;;;;;;;24.03;21.40;;;11.70;99.90;;;;;;4994292;28;20647;-88
2021/09/01 01:17:07;;;;;;;26.10;21.90;;;11.60;99.90;;;;;;4990481;28;20628;-89
2021/09/01 01:19:34;;;;;;;25.77;22.90;;;11.60;99.90;;;;;;4988744;28;20661;-89
2021/09/01 01:22:01;;;;;;;34.00;26.03;;;11.70;99.90;;;;;;4996252;28;20955;-89
2021/09/01 01:24:53;;;;;;;25.87;21.80;;;11.90;99.90;;;;;;4990701;28;20623;-89
2021/09/01 01:27:37;;;;;;;29.87;24.33;;;11.90;99.90;;;;;;4993914;28;20658;-89
2021/09/01 01:30:09;;;;;;;50.17;27.53;;;12.00;99.90;;;;;;4995452;28;20643;-88
2021/09/01 01:32:37;;;;;;;93.53;32.00;;;12.00;99.90;;;;;;4988945;28;20640;-89
2021/09/01 01:35:04;;;;;;;120.87;32.17;;;12.00;99.90;;;;;;4998919;28;20616;-89
2021/09/01 01:37:30;;;;;;;32.43;23.83;;;12.10;99.90;;;;;;4988917;28;20616;-88
2021/09/01 01:39:57;;;;;;;27.80;24.27;;;12.10;99.90;;;;;;4992289;28;20663;-89
2021/09/01 01:42:24;;;;;;;20.70;17.43;;;12.00;99.90;;;;;;4971631;28;20629;-89
2021/09/01 01:44:52;;;;;;;24.00;18.97;;;12.10;99.90;;;;;;4992334;28;21193;-89
2021/09/01 01:47:19;;;;;;;21.90;17.90;;;12.10;99.90;;;;;;4970969;28;21123;-89
2021/09/01 01:49:46;;;;;;;28.87;19.93;;;12.10;99.90;;;;;;4991536;28;20660;-90
2021/09/01 01:52:13;;;;;;;87.03;22.03;;;12.10;99.90;;;;;;4997311;28;20685;-88
2021/09/01 01:54:39;;;;;;;72.30;22.27;;;12.20;99.90;;;;;;4990100;28;20817;-88
2021/09/01 01:57:06;;;;;;;106.17;24.20;;;12.10;99.90;;;;;;4999497;28;20628;-89
2021/09/01 01:59:33;;;;;;;206.50;29.27;;;12.20;99.90;;;;;;4990911;28;20664;-89
2021/09/01 02:02:01;;;;;;;204.47;29.03;;;12.20;99.90;;;;;;4998876;28;20608;-89
2021/09/01 02:04:28;;;;;;;244.87;34.63;;;12.20;99.90;;;;;;4997193;28;20627;-89
2021/09/01 02:06:55;;;;;;;70.60;24.63;;;12.20;99.90;;;;;;4985213;28;21135;-89
2021/09/01 02:09:21;;;;;;;83.67;24.77;;;12.20;99.90;;;;;;4993970;28;20635;-89
2021/09/01 02:11:48;;;;;;;161.23;28.13;;;12.20;99.90;;;;;;4989929;28;21052;-89
2021/09/01 02:14:15;;;;;;;92.73;24.97;;;12.20;99.90;;;;;;4992034;28;20624;-89
2021/09/01 02:16:42;;;;;;;219.37;34.73;;;12.20;99.90;;;;;;4995309;28;20632;-89
2021/09/01 02:19:10;;;;;;;83.37;26.07;;;12.10;99.90;;;;;;4994137;28;20636;-89
2021/09/01 02:21:38;;;;;;;123.80;29.60;;;12.10;99.90;;;;;;4999072;28;20996;-89
2021/09/01 02:24:05;;;;;;;122.00;29.00;;;12.20;99.90;;;;;;4990413;28;20632;-89
2021/09/01 02:26:33;;;;;;;187.47;34.30;;;12.10;99.90;;;;;;4970181;28;20616;-89
2021/09/01 02:29:00;;;;;;;92.27;27.27;;;12.10;99.90;;;;;;4990951;28;20672;-89
2021/09/01 02:31:27;;;;;;;106.20;26.90;;;12.10;99.90;;;;;;4994558;28;20660;-89
2021/09/01 02:33:54;;;;;;;182.47;34.10;;;12.10;99.90;;;;;;4993203;28;20636;-89
2021/09/01 02:36:23;;;;;;;68.57;24.80;;;12.10;99.90;;;;;;4999842;28;20637;-89
2021/09/01 02:38:50;;;;;;;74.50;25.03;;;12.20;99.90;;;;;;4990440;28;21026;-89
2021/09/01 02:41:16;;;;;;;83.80;26.80;;;12.10;99.90;;;;;;4990191;28;20648;-89
2021/09/01 02:43:45;;;;;;;155.33;28.97;;;12.10;99.90;;;;;;4993351;28;20657;-89
2021/09/01 02:46:11;;;;;;;135.40;24.30;;;12.00;99.90;;;;;;4977610;28;20613;-89
2021/09/01 02:48:38;;;;;;;120.97;27.83;;;12.00;99.90;;;;;;4993499;28;20688;-89
2021/09/01 02:51:05;;;;;;;109.00;23.70;;;12.00;99.90;;;;;;4990444;28;20656;-89
2021/09/01 02:53:33;;;;;;;167.90;30.10;;;12.00;99.90;;;;;;4986927;28;20640;-89
2021/09/01 02:56:00;;;;;;;136.87;27.40;;;12.00;99.90;;;;;;4996252;28;20663;-89
2021/09/01 02:58:27;;;;;;;160.53;30.63;;;12.10;99.90;;;;;;4982977;28;20633;-89
2021/09/01 03:00:53;;;;;;;79.77;23.60;;;12.00;99.90;;;;;;4996820;28;20663;-88
2021/09/01 03:03:20;;;;;;;77.03;24.73;;;12.00;99.90;;;;;;4996545;28;20632;-89
2021/09/01 03:05:47;;;;;;;54.77;22.80;;;12.00;99.90;;;;;;4993660;28;20618;-88
2021/09/01 03:08:14;;;;;;;76.43;22.23;;;12.00;99.90;;;;;;4993438;28;20675;-89
2021/09/01 03:10:43;;;;;;;59.30;21.50;;;12.00;99.90;;;;;;4997433;28;21213;-89
2021/09/01 03:13:10;;;;;;;91.67;24.40;;;11.90;99.90;;;;;;4991899;28;21430;-88
2021/09/01 03:15:36;;;;;;;66.80;20.60;;;11.90;99.90;;;;;;4990949;28;20653;-89
2021/09/01 03:18:03;;;;;;;99.77;23.17;;;12.00;99.90;;;;;;4989315;28;20633;-89
2021/09/01 03:20:30;;;;;;;152.93;23.83;;;12.00;99.90;;;;;;4987686;28;20663;-90
2021/09/01 03:22:57;;;;;;;120.37;23.10;;;12.00;99.90;;;;;;4994678;28;20635;-88
2021/09/01 03:25:24;;;;;;;119.97;25.60;;;12.00;99.90;;;;;;4985634;28;20945;-89
2021/09/01 03:27:52;;;;;;;90.83;21.57;;;11.90;99.90;;;;;;4993434;28;20663;-89
2021/09/01 03:30:19;;;;;;;210.93;27.67;;;11.80;99.90;;;;;;4975326;28;20672;-89
2021/09/01 03:32:46;;;;;;;203.27;26.43;;;11.80;99.90;;;;;;4989660;28;20648;-89
2021/09/01 03:35:13;;;;;;;66.30;19.60;;;11.80;99.90;;;;;;4991333;28;21004;-88
2021/09/01 03:37:39;;;;;;;62.87;21.10;;;11.80;99.90;;;;;;4987985;28;20999;-89
2021/09/01 03:40:08;;;;;;;93.93;20.60;;;11.80;99.90;;;;;;4989757;28;20667;-89
2021/09/01 03:42:34;;;;;;;116.43;19.10;;;11.80;99.90;;;;;;4990908;28;20633;-89
2021/09/01 03:45:03;;;;;;;46.77;16.47;;;11.80;99.90;;;;;;4988784;28;20632;-89
2021/09/01 03:47:30;;;;;;;60.83;16.70;;;11.80;99.90;;;;;;4987996;28;20632;-88
2021/09/01 03:49:56;;;;;;;94.27;18.20;;;11.80;99.90;;;;;;4992658;28;20651;-88
2021/09/01 03:52:23;;;;;;;147.30;21.70;;;11.70;99.90;;;;;;4991466;28;20657;-89
2021/09/01 03:54:50;;;;;;;249.33;25.17;;;11.60;99.90;;;;;;4989751;28;20624;-89
2021/09/01 03:57:17;;;;;;;188.77;22.47;;;11.50;99.90;;;;;;4995914;28;20638;-89
2021/09/01 03:59:44;;;;;;;188.07;20.90;;;11.50;99.90;;;;;;4987147;28;20665;-89
2021/09/01 04:02:12;;;;;;;153.57;21.47;;;11.40;99.90;;;;;;4990654;28;20637;-89
2021/09/01 04:04:39;;;;;;;215.07;24.47;;;11.40;99.90;;;;;;4980132;28;21079;-89
2021/09/01 04:07:06;;;;;;;81.93;16.83;;;11.40;99.90;;;;;;4987812;28;20588;-89
2021/09/01 04:09:34;;;;;;;87.60;16.67;;;11.40;99.90;;;;;;4991157;28;20692;-88
2021/09/01 04:12:01;;;;;;;156.07;20.33;;;11.40;99.90;;;;;;4994746;28;20652;-89
2021/09/01 04:14:27;;;;;;;101.70;16.73;;;11.40;99.90;;;;;;4986066;28;20636;-89
2021/09/01 04:16:54;;;;;;;72.43;16.07;;;11.40;99.90;;;;;;4975039;28;21077;-89
2021/09/01 04:19:22;;;;;;;44.17;13.87;;;11.50;99.90;;;;;;4986836;28;20625;-88
2021/09/01 04:21:49;;;;;;;131.77;19.90;;;11.50;99.90;;;;;;4993624;28;20639;-88
2021/09/01 04:24:16;;;;;;;72.00;15.77;;;11.50;99.90;;;;;;4992986;28;20632;-89
2021/09/01 04:26:45;;;;;;;123.17;18.73;;;11.50;99.90;;;;;;4987946;28;20637;-88
2021/09/01 04:29:12;;;;;;;57.30;16.13;;;11.50;99.90;;;;;;4990034;28;20668;-88
2021/09/01 04:31:38;;;;;;;304.87;30.13;;;11.50;99.90;;;;;;4988894;28;20643;-89
2021/09/01 04:34:05;;;;;;;154.60;22.10;;;11.50;99.90;;;;;;4993625;28;20636;-89
2021/09/01 04:36:33;;;;;;;149.43;23.33;;;11.60;99.90;;;;;;4994835;28;20637;-88
2021/09/01 04:39:01;;;;;;;79.63;19.17;;;11.60;99.90;;;;;;4993665;28;20634;-89
2021/09/01 04:41:28;;;;;;;146.90;21.47;;;11.70;99.90;;;;;;4990623;28;21214;-88
2021/09/01 04:43:56;;;;;;;214.30;28.40;;;11.60;99.90;;;;;;4986677;28;20632;-88
2021/09/01 04:46:22;;;;;;;129.30;23.30;;;11.50;99.90;;;;;;4993980;28;21161;-88
2021/09/01 04:48:49;;;;;;;146.93;24.23;;;11.60;99.90;;;;;;4999248;28;21225;-89
2021/09/01 04:51:18;;;;;;;32.93;15.50;;;11.70;99.90;;;;;;4990815;28;20709;-89
2021/09/01 04:53:46;;;;;;;147.40;24.87;;;11.70;99.90;;;;;;4994585;28;20761;-88
2021/09/01 04:56:13;;;;;;;186.77;27.60;;;11.60;99.90;;;;;;4996591;28;20631;-87
2021/09/01 04:58:40;;;;;;;123.27;19.30;;;11.70;99.90;;;;;;4986801;28;20640;-89
2021/09/01 05:01:07;;;;;;;241.87;26.50;;;11.60;99.90;;;;;;4995630;28;21322;-89
2021/09/01 05:03:34;;;;;;;128.67;21.80;;;11.60;99.90;;;;;;4999381;28;20631;-89
2021/09/01 05:06:01;;;;;;;156.47;21.03;;;11.60;99.90;;;;;;5007185;28;20612;-89
2021/09/01 05:08:27;;;;;;;91.20;17.70;;;11.60;99.90;;;;;;5004494;28;20671;-89
2021/09/01 05:10:56;;;;;;;45.60;14.80;;;11.60;99.90;;;;;;4990747;28;20664;-88
2021/09/01 05:13:22;;;;;;;146.83;20.47;;;11.70;99.90;;;;;;4998699;28;20627;-89
2021/09/01 05:15:49;;;;;;;110.33;19.00;;;11.70;99.90;;;;;;4989298;28;20640;-89
2021/09/01 05:18:16;;;;;;;224.07;23.70;;;11.70;99.90;;;;;;4999035;28;20631;-88
2021/09/01 05:20:44;;;;;;;114.43;18.47;;;11.70;99.90;;;;;;4992036;28;20664;-89
2021/09/01 05:23:10;;;;;;;80.33;28.30;;;11.60;99.90;;;;;;4999239;28;21151;-89
2021/09/01 05:25:50;;;;;;;114.70;27.60;;;11.70;99.90;;;;;;4987826;28;20609;-88
2021/09/01 05:28:21;;;;;;;145.67;27.67;;;11.70;99.90;;;;;;4996827;28;20632;-89
2021/09/01 05:30:49;;;;;;;127.17;24.30;;;11.60;99.90;;;;;;4999908;28;21194;-88
2021/09/01 05:33:19;;;;;;;213.70;22.63;;;11.60;99.90;;;;;;4997233;28;20638;-89
2021/09/01 05:35:49;;;;;;;173.87;20.13;;;11.80;99.90;;;;;;4989070;28;20590;-89
2021/09/01 05:38:18;;;;;;;132.87;19.47;;;11.60;99.90;;;;;;4994055;28;20675;-89
2021/09/01 05:40:47;;;;;;;204.20;21.63;;;11.80;99.90;;;;;;4989795;28;20898;-88
2021/09/01 05:43:15;;;;;;;107.23;16.97;;;11.70;99.90;;;;;;4993907;28;20654;-89
2021/09/01 05:45:45;;;;;;;118.33;17.77;;;11.80;99.90;;;;;;4991558;28;20644;-88
2021/09/01 05:48:13;;;;;;;280.50;24.27;;;11.80;99.90;;;;;;4991285;28;20695;-89
2021/09/01 05:50:41;;;;;;;137.13;19.60;;;11.80;99.90;;;;;;4992330;28;20749;-88
2021/09/01 05:55:54;;;;;;;86.27;17.37;;;12.00;99.90;;;;;;4995911;28;20670;-89
2021/09/01 05:58:22;;;;;;;87.03;17.70;;;12.00;99.90;;;;;;4990666;28;20632;-89
2021/09/01 06:00:54;;;;;;;123.63;19.07;;;12.10;99.90;;;;;;4995806;28;20663;-89
2021/09/01 06:03:25;;;;;;;166.37;22.13;;;12.20;99.90;;;;;;4991190;28;21119;-89
2021/09/01 06:05:56;;;;;;;122.90;19.50;;;12.20;99.90;;;;;;4986857;28;20627;-88
2021/09/01 06:08:24;;;;;;;138.43;20.47;;;12.30;99.90;;;;;;4990757;28;20687;-89
2021/09/01 06:10:54;;;;;;;171.60;21.47;;;12.30;99.90;;;;;;4993473;28;21123;-89
2021/09/01 06:13:21;;;;;;;83.20;18.27;;;12.20;99.90;;;;;;4990250;28;20632;-88
2021/09/01 06:15:49;;;;;;;123.47;18.67;;;12.30;99.90;;;;;;4998563;28;20655;-88
2021/09/01 06:18:20;;;;;;;80.03;16.87;;;12.40;99.90;;;;;;4994845;28;20676;-90
2021/09/01 06:20:46;;;;;;;78.87;15.50;;;12.40;99.90;;;;;;4994678;28;20750;-90
2021/09/01 06:23:13;;;;;;;75.97;15.03;;;12.50;99.90;;;;;;4997569;28;20624;-89
2021/09/01 06:25:40;;;;;;;144.10;18.07;;;12.50;99.90;;;;;;4992423;28;21210;-89
2021/09/01 06:28:08;;;;;;;104.83;17.77;;;12.50;99.90;;;;;;4987480;28;21142;-89
2021/09/01 06:30:36;;;;;;;128.37;18.03;;;12.50;99.90;;;;;;4984317;28;20653;-90
2021/09/01 06:33:04;;;;;;;297.07;26.97;;;12.60;99.90;;;;;;4993268;28;20729;-89
2021/09/01 06:35:32;;;;;;;236.77;23.93;;;12.60;99.90;;;;;;4992774;28;20628;-89
2021/09/01 06:37:59;;;;;;;189.13;23.47;;;12.50;99.90;;;;;;4991881;28;20624;-89
2021/09/01 06:40:26;;;;;;;210.37;23.70;;;12.60;99.90;;;;;;4985790;28;21265;-89
2021/09/01 06:42:53;;;;;;;172.07;21.17;;;12.70;99.90;;;;;;4988986;28;20628;-90
2021/09/01 06:45:20;;;;;;;209.90;22.10;;;12.60;99.90;;;;;;4992352;28;20716;-89
2021/09/01 06:47:49;;;;;;;122.37;18.80;;;12.80;99.90;;;;;;4989920;28;20640;-90
2021/09/01 06:50:18;;;;;;;120.67;20.70;;;12.70;99.90;;;;;;4966966;28;20678;-90
2021/09/01 06:52:48;;;;;;;169.63;20.60;;;12.90;99.90;;;;;;4984777;28;20649;-89
2021/09/01 06:55:15;;;;;;;254.17;24.17;;;12.80;99.90;;;;;;4993961;28;20636;-89
2021/09/01 06:57:42;;;;;;;112.60;18.57;;;12.70;99.90;;;;;;4991005;28;20614;-90
2021/09/01 07:00:11;;;;;;;131.70;19.33;;;12.80;99.90;;;;;;4987454;28;20645;-89
2021/09/01 07:02:41;;;;;;;131.57;22.00;;;13.00;99.90;;;;;;4989167;28;20637;-90
2021/09/01 07:05:11;;;;;;;168.93;22.80;;;12.90;99.90;;;;;;4990668;28;20616;-89
2021/09/01 07:07:38;;;;;;;189.80;23.00;;;12.90;99.90;;;;;;4987575;28;20637;-90
2021/09/01 07:10:07;;;;;;;176.83;23.60;;;12.90;99.90;;;;;;4988359;28;20683;-89
2021/09/01 07:12:34;;;;;;;63.57;18.13;;;13.10;99.90;;;;;;4985669;28;20635;-90
2021/09/01 07:15:01;;;;;;;172.90;24.13;;;13.20;99.90;;;;;;4993468;28;21001;-89
2021/09/01 07:17:28;;;;;;;167.33;22.13;;;13.10;99.90;;;;;;4990679;28;20842;-90
2021/09/01 07:19:54;;;;;;;181.87;23.40;;;13.30;99.90;;;;;;4988151;28;20671;-89
2021/09/01 07:22:21;;;;;;;257.27;27.63;;;13.40;99.90;;;;;;4991793;28;21194;-89
2021/09/01 07:24:48;;;;;;;129.33;21.70;;;13.40;99.90;;;;;;4986399;28;21273;-90
2021/09/01 07:27:16;;;;;;;115.63;21.23;;;13.40;99.90;;;;;;4989114;28;20623;-89
2021/09/01 07:29:43;;;;;;;173.43;23.53;;;13.40;99.90;;;;;;4987726;28;20692;-90
2021/09/01 07:32:10;;;;;;;140.20;22.87;;;13.40;99.90;;;;;;4986497;28;20991;-89
2021/09/01 07:34:37;;;;;;;120.90;21.90;;;13.40;99.90;;;;;;4987668;28;21082;-89
2021/09/01 07:37:04;;;;;;;194.67;25.30;;;13.40;99.90;;;;;;4992556;28;21223;-89
2021/09/01 07:39:31;;;;;;;70.20;19.93;;;13.60;99.90;;;;;;4988086;28;20656;-90
2021/09/01 07:41:58;;;;;;;183.53;23.13;;;13.60;99.90;;;;;;4991054;28;20635;-89
2021/09/01 07:44:26;;;;;;;69.63;19.87;;;13.60;99.90;;;;;;4992904;28;20994;-90
2021/09/01 07:46:53;;;;;;;118.03;20.43;;;13.70;99.90;;;;;;4985216;28;21004;-89
2021/09/01 07:49:20;;;;;;;36.50;18.53;;;13.80;99.90;;;;;;4992768;28;20663;-90
2021/09/01 07:51:47;;;;;;;44.20;18.23;;;13.90;99.90;;;;;;4996713;28;21213;-90
2021/09/01 07:54:14;;;;;;;18.33;16.17;;;14.00;99.90;;;;;;4986831;28;20624;-90
2021/09/01 07:56:41;;;;;;;57.30;18.80;;;14.20;99.90;;;;;;4992705;28;21043;-90
2021/09/01 07:59:08;;;;;;;49.27;17.20;;;14.10;99.90;;;;;;4980320;28;20627;-89
2021/09/01 08:01:36;;;;;;;21.97;16.47;;;14.10;99.90;;;;;;4987444;28;20640;-90
2021/09/01 08:04:03;;;;;;;25.20;16.70;;;14.30;99.90;;;;;;4993646;28;20648;-90
2021/09/01 08:06:29;;;;;;;20.27;16.37;;;14.40;99.90;;;;;;4983868;28;21147;-90
2021/09/01 08:08:56;;;;;;;46.23;17.23;;;14.50;99.90;;;;;;4988403;28;20654;-90
2021/09/01 08:11:24;;;;;;;18.00;16.17;;;14.40;99.90;;;;;;4991510;28;20664;-90
2021/09/01 08:13:51;;;;;;;41.20;16.43;;;14.50;99.90;;;;;;4988708;28;20624;-90
2021/09/01 08:16:18;;;;;;;19.63;16.03;;;14.50;99.90;;;;;;4991168;28;20651;-90
2021/09/01 08:18:48;;;;;;;20.90;15.33;;;14.60;99.90;;;;;;4986162;28;20646;-90
2021/09/01 08:21:15;;;;;;;34.80;15.60;;;14.70;99.90;;;;;;4990442;28;20652;-90
2021/09/01 08:23:42;;;;;;;25.40;16.30;;;14.80;99.90;;;;;;4993590;28;20620;-90
2021/09/01 08:26:09;;;;;;;15.40;14.10;;;14.90;99.90;;;;;;4987013;28;20687;-90
2021/09/01 08:28:36;;;;;;;26.53;12.53;;;14.90;99.90;;;;;;4991423;28;20630;-90
2021/09/01 08:31:02;;;;;;;14.73;12.57;;;15.00;99.90;;;;;;4991714;28;20680;-90
2021/09/01 08:33:29;;;;;;;15.80;10.60;;;15.10;99.90;;;;;;4988125;28;20624;-90
2021/09/01 08:35:58;;;;;;;15.20;11.73;;;15.00;99.90;;;;;;4995051;28;20608;-90
2021/09/01 08:38:25;;;;;;;16.97;11.00;;;15.30;99.90;;;;;;4994623;28;20623;-90
2021/09/01 08:40:51;;;;;;;17.30;12.70;;;15.40;99.90;;;;;;4992433;28;21236;-90
2021/09/01 08:43:19;;;;;;;23.63;12.87;;;15.40;99.90;;;;;;4989049;28;20635;-90
2021/09/01 08:45:46;;;;;;;21.00;18.57;;;15.30;99.90;;;;;;4989295;28;20620;-91
2021/09/01 08:48:16;;;;;;;17.17;14.50;;;15.30;99.90;;;;;;4991101;28;20642;-90
2021/09/01 08:50:44;;;;;;;14.20;12.57;;;15.60;99.90;;;;;;4989991;28;21242;-90
2021/09/01 08:53:12;;;;;;;13.23;11.93;;;15.70;99.90;;;;;;4993138;28;21074;-90
2021/09/01 08:55:40;;;;;;;17.27;15.57;;;15.80;99.90;;;;;;4997341;28;20628;-90
2021/09/01 08:58:07;;;;;;;13.83;12.50;;;16.00;99.90;;;;;;4991934;28;20628;-90
2021/09/01 09:00:34;;;;;;;13.90;12.60;;;16.20;99.90;;;;;;4986903;28;20648;-90
2021/09/01 09:03:02;;;;;;;15.47;14.17;;;16.00;99.90;;;;;;4988463;28;21118;-90
2021/09/01 09:05:36;;;;;;;17.63;15.97;;;16.10;99.90;;;;;;4985470;28;20625;-90
2021/09/01 09:08:04;;;;;;;21.20;12.87;;;16.20;99.90;;;;;;4990381;28;20655;-90
2021/09/01 09:10:34;;;;;;;14.53;11.90;;;16.00;99.90;;;;;;4989119;28;21234;-90
2021/09/01 09:13:04;;;;;;;16.40;14.90;;;16.30;99.90;;;;;;4991911;28;21189;-90
2021/09/01 09:15:31;;;;;;;12.30;11.20;;;16.50;99.90;;;;;;4985427;28;20633;-90
2021/09/01 09:17:58;;;;;;;13.77;12.57;;;17.10;99.90;;;;;;4996727;28;20648;-90
2021/09/01 09:20:28;;;;;;;12.43;11.23;;;17.30;99.90;;;;;;4995131;28;20619;-91
2021/09/01 09:22:55;;;;;;;15.30;13.80;;;17.60;99.90;;;;;;4995281;28;20646;-91
2021/09/01 09:25:25;;;;;;;12.77;11.60;;;17.80;99.90;;;;;;4992411;28;20719;-90
2021/09/01 09:27:55;;;;;;;14.43;13.20;;;17.90;99.90;;;;;;5002471;28;20659;-90
2021/09/01 09:30:37;;;;;;;15.73;14.13;;;17.80;99.90;;;;;;5006412;28;20671;-90
2021/09/01 09:33:06;;;;;;;12.93;11.60;;;18.10;99.90;;;;;;4992594;28;21204;-90
2021/09/01 09:35:51;;;;;;;14.87;13.57;;;18.20;99.90;;;;;;4997681;28;20624;-90
2021/09/01 09:38:28;;;;;;;14.40;13.30;;;18.10;99.90;;;;;;4989735;28;20651;-90
2021/09/01 09:40:57;;;;;;;14.23;12.10;;;18.30;99.90;;;;;;4989598;28;20620;-89
2021/09/01 09:43:27;;;;;;;15.73;14.43;;;18.20;99.90;;;;;;4989586;28;21532;-90
2021/09/01 09:46:04;;;;;;;12.67;11.67;;;18.10;99.90;;;;;;4978183;28;20634;-90
2021/09/01 09:48:32;;;;;;;13.30;12.20;;;18.50;99.90;;;;;;4996150;28;20663;-90
2021/09/01 09:51:02;;;;;;;11.77;10.30;;;18.80;99.90;;;;;;4983118;28;20665;-90
2021/09/01 09:53:42;;;;;;;12.90;10.37;;;19.20;99.90;;;;;;4979268;28;20632;-90
2021/09/01 09:56:12;;;;;;;10.40;9.50;;;19.40;99.90;;;;;;4994777;28;20621;-90
2021/09/01 09:58:43;;;;;;;8.57;7.70;;;19.60;99.90;;;;;;4979752;28;20704;-90
2021/09/01 10:01:19;;;;;;;8.17;7.40;;;20.00;99.90;;;;;;4996473;28;20654;-90
2021/09/01 10:03:47;;;;;;;7.57;6.87;;;20.30;99.90;;;;;;4998060;28;20676;-91
2021/09/01 10:06:16;;;;;;;8.63;7.83;;;20.60;99.90;;;;;;4996948;28;20632;-89
2021/09/01 10:08:44;;;;;;;7.97;7.33;;;20.80;99.90;;;;;;4998828;28;20686;-89
2021/09/01 10:11:13;;;;;;;7.93;7.23;;;20.70;99.90;;;;;;5000792;28;20671;-91
2021/09/01 10:13:43;;;;;;;8.07;6.60;;;20.80;99.90;;;;;;4999946;28;20629;-90
2021/09/01 10:16:15;;;;;;;7.47;6.87;;;21.40;99.90;;;;;;4989024;28;21004;-91
2021/09/01 10:18:44;;;;;;;5.77;5.27;;;21.60;99.90;;;;;;4991523;28;20668;-89
2021/09/01 10:21:12;;;;;;;5.20;4.80;;;21.60;99.90;;;;;;4996339;28;21004;-92
2021/09/01 10:23:41;;;;;;;5.20;4.80;;;21.90;99.90;;;;;;4997850;28;20640;-91
2021/09/01 10:29:40;;;;;;;5.90;5.50;;;22.50;99.90;;;;;;5000685;28;20655;-91
2021/09/01 10:32:18;;;;;;;5.67;5.27;;;22.70;99.90;;;;;;4993817;28;20601;-90
2021/09/01 10:34:46;;;;;;;6.67;6.10;;;23.20;99.90;;;;;;4996009;28;21000;-91
2021/09/01 10:37:39;;;;;;;6.13;5.63;;;23.00;99.90;;;;;;4983491;28;20997;-91
2021/09/01 10:40:08;;;;;;;5.70;5.23;;;23.00;99.90;;;;;;4992537;28;20655;-91
2021/09/01 10:42:40;;;;;;;5.57;5.10;;;22.80;99.90;;;;;;4992681;28;20632;-89
2021/09/01 10:45:11;;;;;;;5.43;5.03;;;22.20;99.90;;;;;;4990767;28;20618;-91
2021/09/01 10:48:06;;;;;;;6.27;5.60;;;22.00;99.90;;;;;;4999514;28;20627;-92
2021/09/01 10:50:36;;;;;;;5.23;4.83;;;21.60;99.90;;;;;;4993938;28;20819;-89
2021/09/01 10:53:07;;;;;;;5.70;5.30;;;21.40;99.90;;;;;;4993986;28;21141;-89
2021/09/01 10:55:45;;;;;;;5.80;5.37;;;21.00;99.90;;;;;;4992690;28;21286;-90
2021/09/01 10:58:18;;;;;;;6.03;5.43;;;21.10;99.90;;;;;;4995375;28;20628;-90
2021/09/01 11:00:55;;;;;;;6.17;5.67;;;21.20;99.90;;;;;;4991699;28;20656;-90
2021/09/01 11:03:34;;;;;;;5.57;5.17;;;21.10;99.90;;;;;;4986114;28;20604;-89
2021/09/01 11:06:25;;;;;;;5.67;5.00;;;22.30;99.90;;;;;;4989366;28;20629;-90
2021/09/01 11:09:04;;;;;;;5.60;5.20;;;22.60;99.90;;;;;;4999181;28;21217;-90
2021/09/01 11:11:56;;;;;;;5.70;5.20;;;22.30;99.90;;;;;;4992507;28;20664;-90
2021/09/01 11:14:47;;;;;;;5.73;5.33;;;22.00;99.90;;;;;;4970260;28;20718;-91
2021/09/01 11:17:17;;;;;;;5.70;5.20;;;22.80;99.90;;;;;;4986772;28;21197;-90
2021/09/01 11:19:46;;;;;;;5.40;5.00;;;23.60;99.90;;;;;;4983293;28;20652;-90
2021/09/01 11:22:14;;;;;;;6.30;5.70;;;23.90;99.90;;;;;;4988644;28;20620;-90
2021/09/01 11:24:46;;;;;;;6.07;5.50;;;23.20;99.90;;;;;;4992538;28;20618;-90
2021/09/01 11:27:15;;;;;;;6.83;6.20;;;23.30;99.90;;;;;;4992628;28;20723;-90
2021/09/01 11:29:42;;;;;;;4.97;4.57;;;23.00;99.90;;;;;;4988677;28;20741;-90
2021/09/01 11:32:13;;;;;;;5.83;5.33;;;23.50;99.90;;;;;;4992016;28;21195;-90
2021/09/01 11:34:41;;;;;;;6.53;6.00;;;23.30;99.90;;;;;;4987415;28;20659;-90
2021/09/01 11:37:08;;;;;;;6.03;5.57;;;22.80;99.90;;;;;;4990734;28;20616;-90
2021/09/01 11:39:41;;;;;;;5.83;5.43;;;22.60;99.90;;;;;;4984026;28;21548;-91
2021/09/01 11:42:08;;;;;;;6.83;6.40;;;22.40;99.90;;;;;;4996661;28;20632;-91
2021/09/01 11:44:35;;;;;;;8.37;7.80;;;22.00;99.90;;;;;;4991343;28;21012;-88
2021/09/01 11:47:02;;;;;;;7.70;7.13;;;22.20;99.90;;;;;;4972448;28;20625;-89
2021/09/01 11:49:29;;;;;;;7.47;6.97;;;22.50;99.90;;;;;;4990200;28;20656;-89
2021/09/01 11:51:57;;;;;;;7.33;6.83;;;22.20;99.90;;;;;;4987722;28;20678;-90
2021/09/01 11:54:24;;;;;;;8.00;7.40;;;22.10;99.90;;;;;;4988189;28;20632;-90
2021/09/01 11:56:51;;;;;;;5.97;5.47;;;22.40;99.90;;;;;;4993752;28;20612;-90
2021/09/01 11:59:18;;;;;;;4.50;4.13;;;23.30;99.90;;;;;;4972050;28;21055;-90
2021/09/01 12:01:46;;;;;;;5.13;4.63;;;24.70;99.90;;;;;;4993933;28;20658;-91
2021/09/01 12:04:15;;;;;;;4.37;4.00;;;25.80;96.90;;;;;;4985707;28;20623;-91
2021/09/01 12:06:44;;;;;;;4.13;3.83;;;25.20;97.20;;;;;;4993526;28;20969;-91
2021/09/01 12:09:14;;;;;;;4.90;4.50;;;24.10;98.50;;;;;;4992567;28;20647;-90
2021/09/01 12:11:52;;;;;;;4.60;4.23;;;24.60;95.40;;;;;;4991402;28;20674;-90
2021/09/01 12:14:22;;;;;;;4.20;3.90;;;25.40;97.10;;;;;;4990766;28;20612;-90
2021/09/01 12:16:49;;;;;;;4.83;4.50;;;25.90;93.50;;;;;;4993615;28;20984;-90
2021/09/01 12:19:16;;;;;;;3.83;3.53;;;26.60;88.50;;;;;;4988467;28;21190;-90
2021/09/01 12:21:46;;;;;;;4.83;4.43;;;27.40;90.50;;;;;;4986358;28;20643;-91
2021/09/01 12:24:16;;;;;;;4.40;4.00;;;26.90;90.00;;;;;;4988867;28;20624;-90
2021/09/01 12:27:05;;;;;;;4.60;4.30;;;27.40;91.10;;;;;;4989375;28;20622;-90
2021/09/01 12:29:37;;;;;;;4.20;3.90;;;26.90;88.50;;;;;;4993022;28;20661;-90
2021/09/01 12:32:07;;;;;;;4.60;4.30;;;25.50;92.90;;;;;;4996750;28;20703;-90
2021/09/01 12:34:38;;;;;;;4.93;4.53;;;24.80;94.40;;;;;;4988620;28;20659;-90
2021/09/01 12:37:09;;;;;;;4.37;3.97;;;25.90;92.30;;;;;;4991501;28;20588;-90
2021/09/01 12:39:52;;;;;;;4.03;3.70;;;26.90;82.20;;;;;;4990111;28;21016;-91
2021/09/01 12:42:24;;;;;;;3.93;3.63;;;27.60;82.50;;;;;;4997234;28;20626;-91